WWW736 MMTJ-KRNO
Flight info
| Callsign | WWW736 |
|---|---|
| Flight time | N/A |
| Altitude | 16000 |
| Route | TIJ4B TIJ J1 MZB V23 EHF/N0448F400 DCT ALTTA DCT FMG |
| Aircraft | B736/M-SDE2E3FGHIRWXY/LB1 |
Departure
| Time | 2026-04-20 19:35 |
|---|---|
| Airport | General Abelardo L. Rodriguez International Airport (MMTJ) |
Arrival
| Time | N/A |
|---|---|
| Airport | Reno Tahoe International Airport (KRNO) |
| Time | Latitude | Longitude | Altitude | Speed | Heading |
|---|---|---|---|---|---|
| 2026-04-20 19:16 | 32.54466 | -116.97948 | 476 ft | 0 kts | 99° |
| 2026-04-20 19:27 | 32.54466 | -116.97946 | 476 ft | 0 kts | 99° |
| 2026-04-20 19:27 | 32.54465 | -116.97942 | 475 ft | 1 kts | 99° |
| 2026-04-20 19:28 | 32.54469 | -116.97970 | 476 ft | 4 kts | 100° |
| 2026-04-20 19:28 | 32.54483 | -116.98005 | 476 ft | 4 kts | 148° |
| 2026-04-20 19:28 | 32.54483 | -116.98009 | 476 ft | 4 kts | 188° |
| 2026-04-20 19:28 | 32.54430 | -116.98019 | 477 ft | 8 kts | 187° |
| 2026-04-20 19:29 | 32.54400 | -116.97964 | 476 ft | 9 kts | 98° |
| 2026-04-20 19:29 | 32.54388 | -116.97873 | 474 ft | 12 kts | 99° |
| 2026-04-20 19:29 | 32.54373 | -116.97762 | 472 ft | 14 kts | 98° |
| 2026-04-20 19:29 | 32.54357 | -116.97636 | 469 ft | 16 kts | 98° |
| 2026-04-20 19:30 | 32.54338 | -116.97496 | 467 ft | 18 kts | 99° |
| 2026-04-20 19:30 | 32.54316 | -116.97341 | 465 ft | 19 kts | 99° |
| 2026-04-20 19:30 | 32.54297 | -116.97182 | 465 ft | 21 kts | 98° |
| 2026-04-20 19:30 | 32.54267 | -116.96959 | 466 ft | 31 kts | 98° |
| 2026-04-20 19:31 | 32.54232 | -116.96693 | 470 ft | 34 kts | 99° |
| 2026-04-20 19:31 | 32.54196 | -116.96422 | 474 ft | 30 kts | 99° |
| 2026-04-20 19:31 | 32.54167 | -116.96200 | 476 ft | 24 kts | 98° |
| 2026-04-20 19:31 | 32.54141 | -116.96005 | 477 ft | 19 kts | 98° |
| 2026-04-20 19:32 | 32.54124 | -116.95874 | 476 ft | 14 kts | 99° |
| 2026-04-20 19:32 | 32.54108 | -116.95760 | 474 ft | 14 kts | 98° |
| 2026-04-20 19:32 | 32.54095 | -116.95645 | 473 ft | 14 kts | 99° |
| 2026-04-20 19:32 | 32.54079 | -116.95534 | 471 ft | 14 kts | 100° |
| 2026-04-20 19:33 | 32.54048 | -116.95438 | 470 ft | 11 kts | 161° |
| 2026-04-20 19:33 | 32.54007 | -116.95438 | 470 ft | 1 kts | 190° |
| 2026-04-20 19:33 | 32.53988 | -116.95443 | 470 ft | 4 kts | 190° |
| 2026-04-20 19:33 | 32.53957 | -116.95450 | 470 ft | 5 kts | 196° |
| 2026-04-20 19:34 | 32.53913 | -116.95485 | 470 ft | 7 kts | 218° |
| 2026-04-20 19:34 | 32.53908 | -116.95504 | 470 ft | 0 kts | 280° |
| 2026-04-20 19:34 | 32.53937 | -116.95721 | 473 ft | 72 kts | 278° |
| 2026-04-20 19:35 | 32.54053 | -116.96608 | 523 ft | 145 kts | 277° |
| 2026-04-20 19:35 | 32.54094 | -116.97800 | 1290 ft | 156 kts | 264° |
| 2026-04-20 19:35 | 32.53935 | -116.99078 | 1843 ft | 165 kts | 252° |
| 2026-04-20 19:35 | 32.53241 | -117.00195 | 1666 ft | 178 kts | 223° |
| 2026-04-20 19:36 | 32.52485 | -117.01337 | 1353 ft | 177 kts | 255° |
| 2026-04-20 19:36 | 32.52627 | -117.02678 | 1273 ft | 162 kts | 294° |
| 2026-04-20 19:36 | 32.52929 | -117.03909 | 1276 ft | 154 kts | 263° |
| 2026-04-20 19:36 | 32.52465 | -117.05034 | 1286 ft | 154 kts | 237° |
| 2026-04-20 19:37 | 32.52116 | -117.06216 | 1281 ft | 152 kts | 267° |
| 2026-04-20 19:37 | 32.51963 | -117.07468 | 1306 ft | 167 kts | 256° |
| 2026-04-20 19:37 | 32.51650 | -117.08948 | 1315 ft | 197 kts | 257° |
| 2026-04-20 19:37 | 32.51353 | -117.10477 | 1273 ft | 184 kts | 257° |
| 2026-04-20 19:38 | 32.51065 | -117.11948 | 1312 ft | 200 kts | 257° |
| 2026-04-20 19:38 | 32.50705 | -117.13781 | 1297 ft | 253 kts | 257° |
| 2026-04-20 19:38 | 32.50253 | -117.15861 | 1273 ft | 260 kts | 250° |
| 2026-04-20 19:38 | 32.49220 | -117.17587 | 1400 ft | 273 kts | 221° |
| 2026-04-20 19:39 | 32.47660 | -117.18909 | 2564 ft | 280 kts | 213° |
| 2026-04-20 19:39 | 32.45920 | -117.19772 | 4005 ft | 275 kts | 189° |
| 2026-04-20 19:39 | 32.44105 | -117.19648 | 5389 ft | 269 kts | 167° |
| 2026-04-20 19:39 | 32.42335 | -117.18979 | 6593 ft | 271 kts | 155° |
| 2026-04-20 19:40 | 32.40820 | -117.17663 | 7705 ft | 277 kts | 131° |
| 2026-04-20 19:40 | 32.39828 | -117.15720 | 8785 ft | 283 kts | 115° |
| 2026-04-20 19:40 | 32.39292 | -117.13499 | 9818 ft | 290 kts | 97° |
| 2026-04-20 19:40 | 32.39519 | -117.11138 | 10793 ft | 300 kts | 72° |
| 2026-04-20 19:41 | 32.40489 | -117.08926 | 11599 ft | 315 kts | 56° |
| 2026-04-20 19:41 | 32.42043 | -117.07004 | 12251 ft | 333 kts | 42° |
| 2026-04-20 19:41 | 32.43846 | -117.05250 | 13030 ft | 343 kts | 39° |
| 2026-04-20 19:41 | 32.45718 | -117.03465 | 13978 ft | 348 kts | 40° |
| 2026-04-20 19:42 | 32.47604 | -117.01701 | 14855 ft | 353 kts | 35° |
| 2026-04-20 19:42 | 32.49766 | -117.00275 | 15745 ft | 358 kts | 22° |
| 2026-04-20 19:42 | 32.52171 | -116.99515 | 16587 ft | 362 kts | 6° |
| 2026-04-20 19:42 | 32.54672 | -116.99480 | 17455 ft | 363 kts | 353° |
| 2026-04-20 19:43 | 32.57172 | -117.00095 | 18119 ft | 371 kts | 338° |
| 2026-04-20 19:43 | 32.59470 | -117.01537 | 18578 ft | 383 kts | 321° |
| 2026-04-20 19:43 | 32.61526 | -117.03624 | 19219 ft | 391 kts | 315° |
| 2026-04-20 19:43 | 32.63491 | -117.05834 | 20006 ft | 396 kts | 314° |
| 2026-04-20 19:44 | 32.65478 | -117.08096 | 21047 ft | 393 kts | 314° |
| 2026-04-20 19:44 | 32.67437 | -117.10319 | 21994 ft | 392 kts | 314° |
| 2026-04-20 19:44 | 32.69427 | -117.12573 | 22725 ft | 397 kts | 314° |
| 2026-04-20 19:44 | 32.71411 | -117.14816 | 23470 ft | 401 kts | 314° |
| 2026-04-20 19:45 | 32.73394 | -117.17054 | 24512 ft | 395 kts | 314° |
| 2026-04-20 19:45 | 32.75415 | -117.19274 | 25275 ft | 397 kts | 316° |
| 2026-04-20 19:45 | 32.77575 | -117.21323 | 26088 ft | 399 kts | 323° |
| 2026-04-20 19:45 | 32.79980 | -117.22965 | 26946 ft | 399 kts | 331° |
| 2026-04-20 19:46 | 32.82504 | -117.24247 | 27703 ft | 400 kts | 336° |
| 2026-04-20 19:46 | 32.85130 | -117.25402 | 28423 ft | 400 kts | 337° |
| 2026-04-20 19:46 | 32.87723 | -117.26495 | 29134 ft | 399 kts | 338° |
| 2026-04-20 19:46 | 32.90355 | -117.27595 | 29846 ft | 397 kts | 337° |
| 2026-04-20 19:47 | 32.92947 | -117.28679 | 30506 ft | 396 kts | 337° |
| 2026-04-20 19:47 | 32.95537 | -117.29762 | 31141 ft | 395 kts | 337° |
| 2026-04-20 19:47 | 32.98136 | -117.30851 | 31787 ft | 393 kts | 337° |
| 2026-04-20 19:47 | 33.00681 | -117.31918 | 32350 ft | 392 kts | 337° |
| 2026-04-20 19:48 | 33.03291 | -117.33012 | 32915 ft | 391 kts | 337° |
| 2026-04-20 19:48 | 33.05840 | -117.34082 | 33485 ft | 389 kts | 337° |
| 2026-04-20 19:48 | 33.08397 | -117.35155 | 34075 ft | 388 kts | 336° |
| 2026-04-20 19:48 | 33.10915 | -117.36213 | 34619 ft | 387 kts | 336° |
| 2026-04-20 19:49 | 33.13401 | -117.37258 | 35153 ft | 386 kts | 336° |
| 2026-04-20 19:49 | 33.15926 | -117.38321 | 35672 ft | 385 kts | 336° |
| 2026-04-20 19:49 | 33.18374 | -117.39352 | 36182 ft | 383 kts | 336° |
| 2026-04-20 19:49 | 33.20903 | -117.40500 | 36337 ft | 389 kts | 332° |
| 2026-04-20 19:50 | 33.23248 | -117.41905 | 36323 ft | 397 kts | 326° |
| 2026-04-20 19:50 | 33.25571 | -117.43768 | 36572 ft | 397 kts | 317° |
| 2026-04-20 19:50 | 33.27632 | -117.45898 | 37097 ft | 393 kts | 313° |
| 2026-04-20 19:50 | 33.29594 | -117.48132 | 37625 ft | 390 kts | 311° |
| 2026-04-20 19:51 | 33.31524 | -117.50383 | 38153 ft | 387 kts | 311° |
| 2026-04-20 19:51 | 33.33430 | -117.52616 | 38684 ft | 384 kts | 311° |
| 2026-04-20 19:51 | 33.35331 | -117.54842 | 39221 ft | 380 kts | 311° |
| 2026-04-20 19:51 | 33.37201 | -117.57028 | 39755 ft | 375 kts | 311° |
| 2026-04-20 19:52 | 33.39044 | -117.59186 | 40009 ft | 375 kts | 310° |
| 2026-04-20 19:52 | 33.42825 | -117.63624 | 40051 ft | 389 kts | 311° |
| 2026-04-20 19:53 | 33.46661 | -117.68121 | 40050 ft | 403 kts | 310° |
| 2026-04-20 19:53 | 33.50715 | -117.72877 | 40047 ft | 418 kts | 311° |
| 2026-04-20 19:54 | 33.54900 | -117.77801 | 40049 ft | 431 kts | 311° |
| 2026-04-20 19:54 | 33.59209 | -117.82867 | 40045 ft | 437 kts | 311° |
| 2026-04-20 19:55 | 33.63464 | -117.87869 | 40047 ft | 434 kts | 311° |
| 2026-04-20 19:55 | 33.67726 | -117.92889 | 40047 ft | 429 kts | 311° |
| 2026-04-20 19:56 | 33.72001 | -117.97945 | 40048 ft | 439 kts | 311° |
| 2026-04-20 19:56 | 33.76183 | -118.03039 | 40046 ft | 432 kts | 305° |
| 2026-04-20 19:57 | 33.79224 | -118.09067 | 40050 ft | 431 kts | 287° |
| 2026-04-20 19:57 | 33.81000 | -118.15483 | 40051 ft | 436 kts | 283° |